createdAt,value
2019-04-07T00:01:01.115Z,21.25
2019-04-07T00:03:27.979Z,20.12
2019-04-07T00:05:55.011Z,20.77
2019-04-07T00:08:22.001Z,21.07
2019-04-07T00:10:48.974Z,21.35
2019-04-07T00:13:16.106Z,20.32
2019-04-07T00:15:43.336Z,19.12
2019-04-07T00:18:10.451Z,18.90
2019-04-07T00:20:37.534Z,18.85
2019-04-07T00:23:04.453Z,18.98
2019-04-07T00:25:31.286Z,17.25
2019-04-07T00:27:58.563Z,14.45
2019-04-07T00:30:25.633Z,17.12
2019-04-07T00:32:52.618Z,17.40
2019-04-07T00:35:26.571Z,18.80
2019-04-07T00:37:48.436Z,19.73
2019-04-07T00:40:15.448Z,21.82
2019-04-07T00:42:42.916Z,21.75
2019-04-07T00:45:10.720Z,21.68
2019-04-07T00:47:38.174Z,21.35
2019-04-07T00:50:07.578Z,21.90
2019-04-07T00:52:34.944Z,19.42
2019-04-07T00:55:02.391Z,21.75
2019-04-07T00:57:30.126Z,21.65
2019-04-07T00:59:57.245Z,21.82
2019-04-07T01:02:24.467Z,22.00
2019-04-07T01:04:51.826Z,20.77
2019-04-07T01:07:19.187Z,21.90
2019-04-07T01:09:46.422Z,21.65
2019-04-07T01:12:13.949Z,20.50
2019-04-07T01:14:41.653Z,19.55
2019-04-07T01:17:08.772Z,18.37
2019-04-07T01:19:36.559Z,16.15
2019-04-07T01:22:03.920Z,14.85
2019-04-07T01:24:31.062Z,15.95
2019-04-07T01:26:57.947Z,14.10
2019-04-07T01:29:25.414Z,13.40
2019-04-07T01:31:52.609Z,13.90
2019-04-07T01:34:19.743Z,14.38
2019-04-07T01:36:48.090Z,13.85
2019-04-07T01:39:15.256Z,13.68
2019-04-07T01:41:44.536Z,12.95
2019-04-07T01:44:13.629Z,14.50
2019-04-07T01:47:01.371Z,14.68
2019-04-07T01:49:36.063Z,13.98
2019-04-07T01:52:05.774Z,14.15
2019-04-07T01:54:41.364Z,13.83
2019-04-07T01:57:20.158Z,13.15
2019-04-07T02:00:08.390Z,13.60
2019-04-07T02:02:46.762Z,13.88
2019-04-07T02:05:28.744Z,14.68
2019-04-07T02:08:14.522Z,14.10
2019-04-07T02:11:02.581Z,14.75
2019-04-07T02:13:48.301Z,14.33
2019-04-07T02:16:26.932Z,14.28
2019-04-07T02:19:12.655Z,14.85
2019-04-07T02:21:41.657Z,15.45
2019-04-07T02:24:10.390Z,16.73
2019-04-07T02:26:48.621Z,16.37
2019-04-07T02:29:21.221Z,13.08
2019-04-07T02:32:00.260Z,14.78
2019-04-07T02:34:32.185Z,14.73
2019-04-07T02:37:04.742Z,14.43
2019-04-07T02:39:34.690Z,13.60
2019-04-07T02:44:41.734Z,14.03
2019-04-07T02:47:24.331Z,14.73
2019-04-07T02:50:03.362Z,13.58
2019-04-07T02:52:42.005Z,12.53
2019-04-07T02:55:14.429Z,12.45
2019-04-07T02:57:47.425Z,11.55
2019-04-07T03:00:32.217Z,11.18
2019-04-07T03:03:01.787Z,10.13
2019-04-07T03:05:40.424Z,9.50
2019-04-07T03:08:15.689Z,8.70
2019-04-07T03:10:51.411Z,9.28
2019-04-07T03:13:21.132Z,8.98
2019-04-07T03:16:07.681Z,8.33
2019-04-07T03:18:42.677Z,8.70
2019-04-07T03:21:14.659Z,9.43
2019-04-07T03:23:45.720Z,8.63
2019-04-07T03:26:29.703Z,8.73
2019-04-07T03:29:16.073Z,8.90
2019-04-07T03:31:46.502Z,9.50
2019-04-07T03:34:24.084Z,8.83
2019-04-07T03:37:18.295Z,9.23
2019-04-07T03:39:47.739Z,8.80
2019-04-07T03:42:16.586Z,9.55
2019-04-07T03:44:51.636Z,9.43
2019-04-07T03:47:37.646Z,9.70
2019-04-07T03:50:10.268Z,8.98
2019-04-07T03:52:42.919Z,13.60
2019-04-07T03:55:24.552Z,15.00
2019-04-07T03:58:09.962Z,14.58
2019-04-07T04:01:10.924Z,9.73
2019-04-07T04:03:43.955Z,10.18
2019-04-07T04:06:30.165Z,9.98
2019-04-07T04:09:08.443Z,10.03
2019-04-07T04:11:48.934Z,9.80
2019-04-07T04:14:23.894Z,10.38
2019-04-07T04:16:52.401Z,10.28
2019-04-07T04:19:19.271Z,10.00
2019-04-07T04:21:47.894Z,10.18
2019-04-07T04:24:14.935Z,9.65
2019-04-07T04:26:42.054Z,10.45
2019-04-07T04:29:09.090Z,9.98
2019-04-07T04:31:37.014Z,10.65
2019-04-07T04:34:04.208Z,10.40
2019-04-07T04:36:31.623Z,13.95
2019-04-07T04:38:59.148Z,15.03
2019-04-07T04:41:27.287Z,14.20
2019-04-07T04:43:54.740Z,15.00
2019-04-07T04:46:21.866Z,15.32
2019-04-07T04:48:49.454Z,14.38
2019-04-07T04:51:17.574Z,15.43
2019-04-07T04:53:45.622Z,15.40
2019-04-07T04:56:12.837Z,15.35
2019-04-07T04:58:39.701Z,16.48
2019-04-07T05:01:06.636Z,16.70
2019-04-07T05:03:33.886Z,16.90
2019-04-07T05:06:01.400Z,30.77
2019-04-07T05:08:29.594Z,32.65
2019-04-07T05:10:56.721Z,30.57
2019-04-07T05:13:23.509Z,30.10
2019-04-07T05:15:51.083Z,28.30
2019-04-07T05:18:18.045Z,30.77
2019-04-07T05:20:45.316Z,27.22
2019-04-07T05:23:12.202Z,25.52
2019-04-07T05:25:39.164Z,23.02
2019-04-07T05:28:06.058Z,23.42
2019-04-07T05:30:33.662Z,21.97
2019-04-07T05:33:00.969Z,21.33
2019-04-07T05:35:28.647Z,20.82
2019-04-07T05:38:03.388Z,19.75
2019-04-07T05:40:25.452Z,20.45
2019-04-07T05:42:53.177Z,20.97
2019-04-07T05:45:20.467Z,21.35
2019-04-07T05:47:50.256Z,57.60
2019-04-07T05:50:16.635Z,21.75
2019-04-07T05:52:43.741Z,21.37
2019-04-07T05:55:11.009Z,21.48
2019-04-07T05:57:37.903Z,20.90
2019-04-07T06:00:15.595Z,22.15
2019-04-07T06:02:40.691Z,22.02
2019-04-07T06:05:08.051Z,20.77
2019-04-07T06:07:36.794Z,23.35
2019-04-07T06:10:05.985Z,22.67
2019-04-07T06:12:32.900Z,23.38
2019-04-07T06:15:00.544Z,22.75
2019-04-07T06:17:27.760Z,22.02
2019-04-07T06:19:55.873Z,22.42
2019-04-07T06:22:23.448Z,22.07
2019-04-07T06:24:50.459Z,20.92
2019-04-07T06:27:18.144Z,20.92
2019-04-07T06:29:45.736Z,21.75
2019-04-07T06:32:12.936Z,22.85
2019-04-07T06:34:41.592Z,24.37
2019-04-07T06:37:08.534Z,21.80
2019-04-07T06:39:36.158Z,21.15
2019-04-07T06:42:03.924Z,21.82
2019-04-07T06:44:30.938Z,21.15
2019-04-07T06:47:09.056Z,22.62
2019-04-07T06:49:50.066Z,22.80
2019-04-07T06:52:35.479Z,21.62
2019-04-07T06:55:17.893Z,23.60
2019-04-07T06:57:56.229Z,22.98
2019-04-07T07:00:25.877Z,22.45
2019-04-07T07:02:55.376Z,23.50
2019-04-07T07:05:33.396Z,23.80
2019-04-07T07:08:01.979Z,21.48
2019-04-07T07:10:37.824Z,23.10
2019-04-07T07:13:11.646Z,20.68
2019-04-07T07:15:38.710Z,22.15
2019-04-07T07:18:19.971Z,22.80
2019-04-07T07:20:48.591Z,19.15
2019-04-07T07:23:20.200Z,26.90
2019-04-07T07:25:47.574Z,15.85
2019-04-07T07:28:14.823Z,16.65
2019-04-07T07:30:42.699Z,15.20
2019-04-07T07:33:11.129Z,15.05
2019-04-07T07:35:38.906Z,15.40
2019-04-07T07:38:07.525Z,14.35
2019-04-07T07:40:35.244Z,15.58
2019-04-07T07:43:02.341Z,14.98
2019-04-07T07:45:29.321Z,15.32
2019-04-07T07:47:56.602Z,14.95
2019-04-07T07:50:24.529Z,16.20
2019-04-07T07:52:53.448Z,17.10
2019-04-07T07:55:20.848Z,16.10
2019-04-07T07:57:48.145Z,19.20
2019-04-07T08:00:15.631Z,18.23
2019-04-07T08:02:42.668Z,17.62
2019-04-07T08:05:10.381Z,18.92
2019-04-07T08:07:37.432Z,18.48
2019-04-07T08:10:05.673Z,18.23
2019-04-07T08:12:35.649Z,18.15
2019-04-07T08:15:06.055Z,20.02
2019-04-07T08:17:33.898Z,20.60
2019-04-07T08:20:02.300Z,20.00
2019-04-07T08:22:33.794Z,18.62
2019-04-07T08:25:01.013Z,19.03
2019-04-07T08:27:31.708Z,19.70
2019-04-07T08:29:57.234Z,19.93
2019-04-07T08:32:26.443Z,21.15
2019-04-07T08:34:53.039Z,20.55
2019-04-07T08:37:20.052Z,20.55
2019-04-07T08:39:47.522Z,20.57
2019-04-07T08:42:18.502Z,21.90
2019-04-07T08:44:44.108Z,21.87
2019-04-07T08:47:14.536Z,20.75
2019-04-07T08:49:40.433Z,20.52
2019-04-07T08:52:10.993Z,20.23
2019-04-07T08:54:37.111Z,21.52
2019-04-07T08:57:04.595Z,20.55
2019-04-07T08:59:31.558Z,20.70
2019-04-07T09:01:58.540Z,21.75
2019-04-07T09:04:26.484Z,21.73
2019-04-07T09:06:53.857Z,22.45
2019-04-07T09:09:31.335Z,20.08
2019-04-07T09:11:53.042Z,21.95
2019-04-07T09:14:18.503Z,20.08
2019-04-07T09:17:02.488Z,20.35
2019-04-07T09:19:41.660Z,20.30
2019-04-07T09:22:11.749Z,20.82
2019-04-07T09:24:50.839Z,21.90
2019-04-07T09:27:23.376Z,22.85
2019-04-07T09:30:07.919Z,22.52
2019-04-07T09:32:52.912Z,20.88
2019-04-07T09:35:26.360Z,22.27
2019-04-07T09:38:14.354Z,23.07
2019-04-07T09:40:49.560Z,22.37
2019-04-07T09:43:22.432Z,24.63
2019-04-07T09:46:10.311Z,22.95
2019-04-07T09:48:42.994Z,19.65
2019-04-07T09:51:15.501Z,21.55
2019-04-07T09:54:00.777Z,19.15
2019-04-07T09:56:36.214Z,19.62
2019-04-07T09:59:15.044Z,19.40
2019-04-07T10:01:45.848Z,19.37
2019-04-07T10:04:20.872Z,19.60
2019-04-07T10:06:53.028Z,18.90
2019-04-07T10:09:31.147Z,17.65
2019-04-07T10:12:00.451Z,18.25
2019-04-07T10:14:42.094Z,16.82
2019-04-07T10:17:20.993Z,19.77
2019-04-07T10:20:06.791Z,18.20
2019-04-07T10:22:41.928Z,16.62
2019-04-07T10:25:21.108Z,15.58
2019-04-07T10:27:58.341Z,17.20
2019-04-07T10:30:27.419Z,16.25
2019-04-07T10:33:00.102Z,14.78
2019-04-07T10:35:38.448Z,15.58
2019-04-07T10:38:10.009Z,16.23
2019-04-07T10:40:39.030Z,18.17
2019-04-07T10:43:25.051Z,15.10
2019-04-07T10:45:54.910Z,18.65
2019-04-07T10:51:08.335Z,19.82
2019-04-07T10:53:43.051Z,19.50
2019-04-07T10:56:18.769Z,20.77
2019-04-07T10:58:57.143Z,21.35
2019-04-07T11:01:26.694Z,21.10
2019-04-07T11:04:08.288Z,24.02
2019-04-07T11:06:37.417Z,24.67
2019-04-07T11:09:11.980Z,24.52
2019-04-07T11:11:41.253Z,22.60
2019-04-07T11:14:11.295Z,21.95
2019-04-07T11:17:01.084Z,24.20
2019-04-07T11:19:43.349Z,22.02
2019-04-07T11:22:12.714Z,21.00
2019-04-07T11:24:45.801Z,22.27
2019-04-07T11:27:17.570Z,23.18
2019-04-07T11:29:50.629Z,21.45
2019-04-07T11:32:22.971Z,21.95
2019-04-07T11:34:53.810Z,25.35
2019-04-07T11:37:31.636Z,23.38
2019-04-07T11:40:04.808Z,25.43
2019-04-07T11:42:35.051Z,23.85
2019-04-07T11:45:20.968Z,26.52
2019-04-07T11:47:52.636Z,26.52
2019-04-07T11:50:32.682Z,24.07
2019-04-07T11:53:05.022Z,26.25
2019-04-07T11:55:37.698Z,25.55
2019-04-07T11:58:23.620Z,25.72
2019-04-07T12:01:04.713Z,27.52
2019-04-07T12:03:43.263Z,27.58
2019-04-07T12:06:19.164Z,28.57
2019-04-07T12:08:54.625Z,29.90
2019-04-07T12:11:26.669Z,28.67
2019-04-07T12:13:56.274Z,29.52
2019-04-07T12:19:12.677Z,30.90
2019-04-07T12:21:42.023Z,34.67
2019-04-07T12:24:13.698Z,27.22
2019-04-07T12:27:01.089Z,26.90
2019-04-07T12:29:48.558Z,26.75
2019-04-07T12:32:34.323Z,26.62
2019-04-07T12:35:15.593Z,26.20
2019-04-07T12:37:49.255Z,26.50
2019-04-07T12:40:34.818Z,27.13
2019-04-07T12:43:07.473Z,27.27
2019-04-07T12:45:53.672Z,26.07
2019-04-07T12:48:38.116Z,26.87
2019-04-07T12:51:08.395Z,27.42
2019-04-07T12:53:40.370Z,26.00
2019-04-07T12:56:31.724Z,25.97
2019-04-07T12:59:00.295Z,27.40
2019-04-07T13:01:29.541Z,72.78
2019-04-07T13:03:59.020Z,24.00
2019-04-07T13:09:11.464Z,23.92
2019-04-07T13:11:49.642Z,21.17
2019-04-07T13:14:24.899Z,20.92
2019-04-07T13:17:11.607Z,21.37
2019-04-07T13:19:48.921Z,22.35
2019-04-07T13:22:27.181Z,23.15
2019-04-07T13:25:00.152Z,24.45
2019-04-07T13:27:41.627Z,22.62
2019-04-07T13:30:12.736Z,22.35
2019-04-07T13:32:56.667Z,23.22
2019-04-07T13:35:27.790Z,22.07
2019-04-07T13:38:00.109Z,23.02
2019-04-07T13:40:47.087Z,24.15
2019-04-07T13:43:25.338Z,24.30
2019-04-07T13:46:18.953Z,24.50
2019-04-07T13:48:58.810Z,21.85
2019-04-07T13:51:24.356Z,20.08
2019-04-07T13:53:59.558Z,20.88
2019-04-07T13:56:28.577Z,21.75
2019-04-07T13:59:01.005Z,22.13
2019-04-07T14:01:32.229Z,20.30
2019-04-07T14:04:01.248Z,22.62
2019-04-07T14:06:39.337Z,43.60
2019-04-07T14:09:12.286Z,22.02
2019-04-07T14:11:53.149Z,23.18
2019-04-07T14:14:30.325Z,23.75
2019-04-07T14:16:59.614Z,23.90
2019-04-07T14:19:42.250Z,26.10
2019-04-07T14:22:20.971Z,21.80
2019-04-07T14:25:06.512Z,19.50
2019-04-07T14:27:52.595Z,18.48
2019-04-07T14:30:40.872Z,18.37
2019-04-07T14:33:16.593Z,19.90
2019-04-07T14:35:45.494Z,21.02
2019-04-07T14:38:17.448Z,20.02
2019-04-07T14:40:49.988Z,19.52
2019-04-07T14:43:19.050Z,18.00
2019-04-07T14:45:48.820Z,18.98
2019-04-07T14:48:24.702Z,18.42
2019-04-07T14:51:05.956Z,18.65
2019-04-07T14:53:36.626Z,17.60
2019-04-07T14:56:08.434Z,17.60
2019-04-07T14:58:48.450Z,17.42
2019-04-07T15:01:14.856Z,17.10
2019-04-07T15:03:42.717Z,17.82
2019-04-07T15:06:10.878Z,17.87
2019-04-07T15:08:46.292Z,17.92
2019-04-07T15:11:16.667Z,16.55
2019-04-07T15:13:45.496Z,17.87
2019-04-07T15:16:12.853Z,17.00
2019-04-07T15:18:40.098Z,15.95
2019-04-07T15:21:07.942Z,15.93
2019-04-07T15:23:35.042Z,15.63
2019-04-07T15:26:02.235Z,15.00
2019-04-07T15:28:31.452Z,15.38
2019-04-07T15:30:58.912Z,14.47
2019-04-07T15:33:25.951Z,14.80
2019-04-07T15:35:53.455Z,14.43
2019-04-07T15:38:24.864Z,13.50
2019-04-07T15:40:50.711Z,15.03
2019-04-07T15:43:17.993Z,13.20
2019-04-07T15:45:45.609Z,12.98
2019-04-07T15:48:13.565Z,14.07
2019-04-07T15:50:41.672Z,12.58
2019-04-07T15:53:09.297Z,13.48
2019-04-07T15:55:45.504Z,12.65
2019-04-07T15:58:05.552Z,12.63
2019-04-07T16:00:35.171Z,12.35
2019-04-07T16:03:01.937Z,12.60
2019-04-07T16:05:28.970Z,12.28
2019-04-07T16:07:56.241Z,12.05
2019-04-07T16:10:26.157Z,11.95
2019-04-07T16:12:54.363Z,11.12
2019-04-07T16:15:23.458Z,11.93
2019-04-07T16:17:50.390Z,11.43
2019-04-07T16:20:22.881Z,11.35
2019-04-07T16:22:49.013Z,12.23
2019-04-07T16:25:16.100Z,12.87
2019-04-07T16:27:44.643Z,12.18
2019-04-07T16:30:15.774Z,11.60
2019-04-07T16:32:41.503Z,12.03
2019-04-07T16:35:13.083Z,12.30
2019-04-07T16:37:39.053Z,10.75
2019-04-07T16:40:10.502Z,10.98
2019-04-07T16:42:37.420Z,10.90
2019-04-07T16:45:06.074Z,11.60
2019-04-07T16:47:35.662Z,9.53
2019-04-07T16:50:03.090Z,10.98
2019-04-07T16:52:32.919Z,11.38
2019-04-07T16:54:59.656Z,11.17
2019-04-07T16:57:30.157Z,10.63
2019-04-07T16:59:56.339Z,10.57
2019-04-07T17:02:24.092Z,10.75
2019-04-07T17:04:51.371Z,10.93
2019-04-07T17:07:20.808Z,9.63
2019-04-07T17:09:47.252Z,11.80
2019-04-07T17:12:14.998Z,11.12
2019-04-07T17:14:42.091Z,12.00
2019-04-07T17:17:09.975Z,15.63
2019-04-07T17:19:37.317Z,14.80
2019-04-07T17:22:07.207Z,15.95
2019-04-07T17:24:34.534Z,16.10
2019-04-07T17:27:03.028Z,16.52
2019-04-07T17:29:30.426Z,16.87
2019-04-07T17:32:01.266Z,16.90
2019-04-07T17:34:26.485Z,16.93
2019-04-07T17:36:55.951Z,17.20
2019-04-07T17:39:24.723Z,19.00
2019-04-07T17:41:52.762Z,18.95
2019-04-07T17:44:28.643Z,17.37
2019-04-07T17:47:07.063Z,17.70
2019-04-07T17:49:56.037Z,18.35
2019-04-07T17:52:26.166Z,18.37
2019-04-07T17:54:58.914Z,20.00
2019-04-07T17:57:45.033Z,18.77
2019-04-07T18:00:21.750Z,20.00
2019-04-07T18:03:05.230Z,18.32
2019-04-07T18:05:40.724Z,20.08
2019-04-07T18:08:12.983Z,21.50
2019-04-07T18:10:56.010Z,21.02
2019-04-07T18:13:43.347Z,20.90
2019-04-07T18:16:22.742Z,21.97
2019-04-07T18:19:01.604Z,21.62
2019-04-07T18:21:32.256Z,21.47
2019-04-07T18:24:18.072Z,23.18
2019-04-07T18:27:03.583Z,22.25
2019-04-07T18:29:45.997Z,22.15
2019-04-07T18:32:27.474Z,24.55
2019-04-07T18:35:02.631Z,25.25
2019-04-07T18:37:42.190Z,24.95
2019-04-07T18:40:28.211Z,26.33
2019-04-07T18:43:12.182Z,23.90
2019-04-07T18:45:57.820Z,24.35
2019-04-07T18:48:29.298Z,31.27
2019-04-07T18:50:58.811Z,28.38
2019-04-07T18:53:28.727Z,30.70
2019-04-07T18:58:50.042Z,31.40
2019-04-07T19:01:38.986Z,31.05
2019-04-07T19:04:10.070Z,36.23
2019-04-07T19:06:47.513Z,38.40
2019-04-07T19:09:28.286Z,40.55
2019-04-07T19:12:07.905Z,35.17
2019-04-07T19:14:44.579Z,31.27
2019-04-07T19:17:25.590Z,29.35
2019-04-07T19:19:57.138Z,29.23
2019-04-07T19:22:37.207Z,29.98
2019-04-07T19:25:17.251Z,30.68
2019-04-07T19:27:55.419Z,32.05
2019-04-07T19:30:43.674Z,32.55
2019-04-07T19:33:24.062Z,33.08
2019-04-07T19:36:11.193Z,32.42
2019-04-07T19:38:49.267Z,34.08
2019-04-07T19:41:16.791Z,34.58
2019-04-07T19:43:55.310Z,35.08
2019-04-07T19:46:28.191Z,33.80
2019-04-07T19:48:56.109Z,34.03
2019-04-07T19:51:34.163Z,34.88
2019-04-07T19:54:03.213Z,35.80
2019-04-07T19:56:44.184Z,37.23
2019-04-07T19:59:13.964Z,37.00
2019-04-07T20:01:58.509Z,39.27
2019-04-07T20:04:47.785Z,43.25
2019-04-07T20:07:33.240Z,37.60
2019-04-07T20:10:05.156Z,35.58
2019-04-07T20:12:42.635Z,37.55
2019-04-07T20:15:29.676Z,38.42
2019-04-07T20:18:11.146Z,44.13
2019-04-07T20:20:43.223Z,48.58
2019-04-07T20:23:16.826Z,55.30
2019-04-07T20:25:59.976Z,55.05
2019-04-07T20:28:32.481Z,55.75
2019-04-07T20:31:04.361Z,52.03
2019-04-07T20:33:37.007Z,49.35
2019-04-07T20:36:23.861Z,51.58
2019-04-07T20:39:11.497Z,51.40
2019-04-07T20:41:52.543Z,54.18
2019-04-07T20:44:38.233Z,53.05
2019-04-07T20:47:26.367Z,50.63
2019-04-07T20:49:55.004Z,49.58
2019-04-07T20:52:32.727Z,50.03
2019-04-07T20:55:04.745Z,48.40
2019-04-07T20:57:41.214Z,47.13
2019-04-07T21:00:27.291Z,51.45
2019-04-07T21:03:14.088Z,48.58
2019-04-07T21:05:30.855Z,46.42
2019-04-07T21:08:01.048Z,46.58
2019-04-07T21:10:30.741Z,45.95
2019-04-07T21:13:05.765Z,44.80
2019-04-07T21:15:46.667Z,43.58
2019-04-07T21:18:28.898Z,46.23
2019-04-07T21:20:56.788Z,45.67
2019-04-07T21:23:36.968Z,44.13
2019-04-07T21:26:12.271Z,43.15
2019-04-07T21:28:41.099Z,44.42
2019-04-07T21:31:26.778Z,46.37
2019-04-07T21:33:59.206Z,43.95
2019-04-07T21:36:37.581Z,42.33
2019-04-07T21:39:14.510Z,41.35
2019-04-07T21:41:59.881Z,42.95
2019-04-07T21:44:45.715Z,44.18
2019-04-07T21:47:31.730Z,43.10
2019-04-07T21:50:09.623Z,43.58
2019-04-07T21:52:43.529Z,44.30
2019-04-07T21:55:31.167Z,45.25
2019-04-07T21:58:16.888Z,43.42
2019-04-07T22:00:49.025Z,43.38
2019-04-07T22:03:24.486Z,45.65
2019-04-07T22:06:00.550Z,43.90
2019-04-07T22:08:30.517Z,46.25
2019-04-07T22:10:57.729Z,45.12
2019-04-07T22:13:25.789Z,44.67
2019-04-07T22:15:57.898Z,45.90
2019-04-07T22:18:21.883Z,47.83
2019-04-07T22:20:52.316Z,46.15
2019-04-07T22:23:18.755Z,46.60
2019-04-07T22:25:50.498Z,49.00
2019-04-07T22:28:18.485Z,48.52
2019-04-07T22:30:47.101Z,46.90
2019-04-07T22:33:14.139Z,48.52
2019-04-07T22:35:42.743Z,46.98
2019-04-07T22:38:09.823Z,48.08
2019-04-07T22:40:39.115Z,45.83
2019-04-07T22:43:06.112Z,47.43
2019-04-07T22:45:35.164Z,48.28
2019-04-07T22:48:03.418Z,45.10
2019-04-07T22:50:35.498Z,50.20
2019-04-07T22:55:29.208Z,46.42
2019-04-07T22:57:56.436Z,47.48
2019-04-07T23:00:26.921Z,49.75
2019-04-07T23:02:54.191Z,49.25
2019-04-07T23:05:21.720Z,49.75
2019-04-07T23:07:50.078Z,50.78
2019-04-07T23:10:17.651Z,51.95
2019-04-07T23:12:44.770Z,50.73
2019-04-07T23:15:13.616Z,52.98
2019-04-07T23:17:40.592Z,52.25
2019-04-07T23:20:07.876Z,52.23
2019-04-07T23:22:36.219Z,52.03
2019-04-07T23:25:05.762Z,58.35
2019-04-07T23:27:33.862Z,56.60
2019-04-07T23:30:01.228Z,53.52
2019-04-07T23:32:28.292Z,60.80
2019-04-07T23:34:55.474Z,54.42
2019-04-07T23:37:22.516Z,54.35
2019-04-07T23:39:49.602Z,52.55
2019-04-07T23:42:16.946Z,51.05
2019-04-07T23:44:43.999Z,51.95
2019-04-07T23:47:11.270Z,50.92
2019-04-07T23:49:38.512Z,59.10
2019-04-07T23:52:07.505Z,53.10
2019-04-07T23:54:35.258Z,57.10
2019-04-07T23:57:03.863Z,54.75
2019-04-07T23:59:31.012Z,54.25
